Cruise inventory

FRV Clupea 1993C

Cruise summary report

Cruise Info. 
Ship name (ship code)FRV Clupea (74CU)
Cruise identifier1993C
Cruise period1993-10-19 — 1993-10-25
StatusCompleted
Port of departureFraserburgh, United Kingdom
Port of returnFraserburgh, United Kingdom
Objectives1. To service five current meter morrings (Numbers 1, 2, 4, 5 and 6- Tay series).
2. To undertake a hydrochemical survey of the northeast coast.
Chief scientistBill Turrell (Scottish Office Agriculture and Fisheries Department Aberdeen Marine Laboratory)
ProjectScottish Coastal Zone Project
Coordinating bodySOAFD
Cruise reportFRV Clupea 1993C cruise report cl19_93.pdf — access key 'C' (0.09 MB) 
Ocean/sea areas 
GeneralNorth Sea
SpecificMoray Firth, Firth of Forth
Track chartsFRV Clupea 1993C cruise track — trk4045.html
Measurements 
Physical oceanography 
Surface measurements underway (T,S)Quantity: activity duration in days = 6
CTD stationsQuantity: number of stations = 60
Description: NBIS
Current metersQuantity: number of stations = 5
Description: 9 recovered, 9 deployed
Chemical oceanography 
PhosphateQuantity: number of stations = 60
NitrateQuantity: number of stations = 60
SilicateQuantity: number of stations = 60
Biology and fisheries 
Phytoplankton pigs (eg chlorophyll, fluorescence)Quantity: number of samples = 36
Moorings, landers, buoys 
Physical oceanography 
Current meters56° 16' 0" N  2° 23' 59" W — 20.10.93 rec. 2 ACM,TC,WLR & NA, depl. 2 ACM,TC,WLR,NA
Current meters56° 22' 0" N  2° 17' 59" W — 20.10.93 rec. 2 ACM,WLR & NA, depl. 2 ACM & WLR
Current meters56° 16' 59" N  2° 32' 59" W — 22.10.93 rec. 2 ACM, depl. 2 ACM
Current meters56° 31' 0" N  2° 31' 0" W — 21.10.93 rec. 2 ACM,WLR & NA, depl. 2 ACM, WLR & NA
Current meters56° 22' 0" N  2° 37' 59" W — 22.10.93 rec. ACM,WLR,NA.(S4 LOST), depl. ACM,WLR & NA
Data held at BODC 
Series/Profiles 
59  CTD/STD cast
Density of the water column
Electrical conductivity of the water column
Vertical spatial coordinates
Salinity of the water column
Temperature of the water column
Density of the water column
Electrical conductivity of the water column
Vertical spatial coordinates
Salinity of the water column
Temperature of the water column

BODC idDate/TimeLocationDoc.
3966121993-10-23 07:02 56° 16' 13" N  2° 32' 53" W  View metadata report for BODC series reference number 396612
3966241993-10-23 07:20 56° 16' 14" N  2° 31' 26" W  View metadata report for BODC series reference number 396624
3966361993-10-23 08:01 56° 16' 17" N  2° 23' 27" W  View metadata report for BODC series reference number 396636
3966481993-10-23 08:25 56° 16' 14" N  2° 19' 11" W  View metadata report for BODC series reference number 396648
3966611993-10-23 08:50 56° 16' 14" N  2° 14' 28" W  View metadata report for BODC series reference number 396661
3966731993-10-23 09:13 56° 16' 18" N  2° 10' 13" W  View metadata report for BODC series reference number 396673
3966851993-10-23 09:41 56° 16' 17" N  2° 4' 52" W  View metadata report for BODC series reference number 396685
3966971993-10-23 10:31 56° 16' 13" N  1° 59' 26" W  View metadata report for BODC series reference number 396697
3967041993-10-23 11:33 56° 28' 6" N  1° 59' 44" W  View metadata report for BODC series reference number 396704
3967161993-10-23 12:05 56° 22' 0" N  2° 4' 58" W  View metadata report for BODC series reference number 396716
3967281993-10-23 12:44 56° 22' 13" N  2° 18' 15" W  View metadata report for BODC series reference number 396728
3967411993-10-23 13:11 56° 22' 10" N  2° 14' 44" W  View metadata report for BODC series reference number 396741
3967531993-10-23 01:37 56° 22' 6" N  2° 19' 19" W  View metadata report for BODC series reference number 396753
3967651993-10-23 14:07 56° 22' 14" N  2° 23' 52" W  View metadata report for BODC series reference number 396765
3967771993-10-23 14:31 56° 22' 6" N  2° 28' 3" W  View metadata report for BODC series reference number 396777
3967891993-10-23 14:58 56° 22' 15" N  2° 32' 31" W  View metadata report for BODC series reference number 396789
3967901993-10-23 15:19 56° 22' 14" N  2° 35' 39" W  View metadata report for BODC series reference number 396790
3968081993-10-23 15:38 56° 22' 3" N  2° 38' 42" W  View metadata report for BODC series reference number 396808
3968211993-10-23 15:57 56° 22' 27" N  2° 41' 38" W  View metadata report for BODC series reference number 396821
3968331993-10-23 16:13 56° 22' 9" N  2° 44' 26" W  View metadata report for BODC series reference number 396833
3968451993-10-23 17:05 56° 27' 1" N  2° 37' 45" W  View metadata report for BODC series reference number 396845
3968571993-10-23 17:20 56° 26' 57" N  2° 35' 48" W  View metadata report for BODC series reference number 396857
3968691993-10-23 17:39 56° 27' 0" N  2° 32' 32" W  View metadata report for BODC series reference number 396869
3968701993-10-23 18:02 56° 26' 59" N  2° 28' 0" W  View metadata report for BODC series reference number 396870
3968821993-10-23 18:25 56° 26' 55" N  2° 23' 35" W  View metadata report for BODC series reference number 396882
3968941993-10-23 18:50 56° 26' 50" N  2° 19' 4" W  View metadata report for BODC series reference number 396894
3969011993-10-23 19:14 56° 26' 53" N  2° 14' 40" W  View metadata report for BODC series reference number 396901
3969131993-10-23 19:37 56° 26' 42" N  2° 10' 2" W  View metadata report for BODC series reference number 396913
3969251993-10-23 20:04 56° 26' 51" N  2° 4' 53" W  View metadata report for BODC series reference number 396925
3969371993-10-23 20:31 56° 26' 49" N  1° 59' 52" W  View metadata report for BODC series reference number 396937
3969491993-10-23 21:12 56° 30' 50" N  1° 59' 46" W  View metadata report for BODC series reference number 396949
3969501993-10-23 21:41 56° 30' 56" N  2° 5' 12" W  View metadata report for BODC series reference number 396950
3969621993-10-23 22:08 56° 30' 57" N  2° 10' 25" W  View metadata report for BODC series reference number 396962
3969741993-10-23 22:31 56° 30' 54" N  2° 14' 46" W  View metadata report for BODC series reference number 396974
3969861993-10-23 22:56 56° 30' 55" N  2° 19' 19" W  View metadata report for BODC series reference number 396986
3969981993-10-23 23:19 56° 30' 58" N  2° 23' 48" W  View metadata report for BODC series reference number 396998
3970011993-10-23 23:45 56° 30' 55" N  2° 28' 3" W  View metadata report for BODC series reference number 397001
3970131993-10-24 00:12 56° 31' 11" N  2° 32' 39" W  View metadata report for BODC series reference number 397013
3970251993-10-24 00:34 56° 31' 6" N  2° 35' 51" W  View metadata report for BODC series reference number 397025
3970371993-10-24 01:17 56° 31' 5" N  2° 37' 10" W  View metadata report for BODC series reference number 397037
3970491993-10-24 04:23 56° 53' 31" N  1° 57' 2" W  View metadata report for BODC series reference number 397049
3970501993-10-24 05:04 56° 52' 50" N  2° 0' 58" W  View metadata report for BODC series reference number 397050
3970621993-10-24 05:30 56° 52' 46" N  2° 3' 24" W  View metadata report for BODC series reference number 397062
3970741993-10-24 05:50 56° 52' 48" N  2° 5' 18" W  View metadata report for BODC series reference number 397074
3970861993-10-24 06:15 56° 52' 47" N  2° 7' 34" W  View metadata report for BODC series reference number 397086
3970981993-10-24 06:34 56° 52' 52" N  2° 9' 25" W  View metadata report for BODC series reference number 397098
3971051993-10-24 06:48 56° 52' 50" N  2° 10' 29" W  View metadata report for BODC series reference number 397105
3971171993-10-24 07:01 56° 52' 48" N  2° 11' 28" W  View metadata report for BODC series reference number 397117
3971291993-10-24 07:16 56° 52' 52" N  2° 11' 40" W  View metadata report for BODC series reference number 397129
3971301993-10-24 09:21 56° 7' 28" N  2° 1' 36" W  View metadata report for BODC series reference number 397130
3971421993-10-24 09:34 56° 7' 8" N  2° 0' 12" W  View metadata report for BODC series reference number 397142
3971541993-10-24 09:50 56° 7' 23" N  1° 59' 45" W  View metadata report for BODC series reference number 397154
3971661993-10-24 10:08 57° 7' 25" N  1° 58' 31" W  View metadata report for BODC series reference number 397166
3971781993-10-24 10:28 57° 7' 19" N  1° 56' 23" W  View metadata report for BODC series reference number 397178
3971911993-10-24 10:47 57° 7' 18" N  1° 54' 16" W  View metadata report for BODC series reference number 397191
3972091993-10-24 11:05 57° 7' 21" N  1° 52' 14" W  View metadata report for BODC series reference number 397209
3972101993-10-24 11:33 57° 7' 25" N  1° 48' 18" W  View metadata report for BODC series reference number 397210
3965931993-10-23 06:18 56° 16' 10" N  2° 34' 39" W  View metadata report for BODC series reference number 396593
3966001993-10-23 06:48 56° 16' 17" N  2° 33' 49" W  View metadata report for BODC series reference number 396600